This is the latest recevied weather packets stored in our database for station/object E22FEY-1. If no packets are shown the sender has not sent any weather packets the latest 10 day(s).
| Time | Temp. | Humidity | Pressure | Rain* | Wind** | Luminosity | Snow |
|---|---|---|---|---|---|---|---|
| 1777953830 | 38.33° C | 39% | 1011 hPa | - | - | 0 W/m² | - |
| 1777952906 | 37.22° C | 41% | 1011 hPa | - | - | 0 W/m² | - |
| 1777951981 | 36.67° C | 40% | 1011 hPa | - | - | 0 W/m² | - |
| 1777951057 | 36.67° C | 41% | 1011 hPa | - | - | 0 W/m² | - |
| 1777950133 | 36.67° C | 41% | 1011 hPa | - | - | 0 W/m² | - |
| 1777949208 | 35.56° C | 42% | 1011 hPa | - | - | 0 W/m² | - |
| 1777948283 | 36.11° C | 43% | 1011 hPa | - | - | 0 W/m² | - |
| 1777947358 | 35.56° C | 43% | 1011 hPa | - | - | 0 W/m² | - |
| 1777946433 | 34.44° C | 45% | 1011 hPa | - | - | 0 W/m² | - |
| 1777945508 | 35° C | 45% | 1011 hPa | - | - | 0 W/m² | - |
| 1777944585 | 33.33° C | 48% | 1011 hPa | - | - | 0 W/m² | - |
| 1777943659 | 34.44° C | 48% | 1011 hPa | - | - | 0 W/m² | - |
| 1777942735 | 36.11° C | 44% | 1011 hPa | - | - | 0 W/m² | - |
| 1777941810 | 36.11° C | 47% | 1010 hPa | - | - | 0 W/m² | - |
| 1777940873 | 32.22° C | 57% | 1010 hPa | - | - | 0 W/m² | - |
| 1777940804 | 32.22° C | 58% | 1010 hPa | - | - | 0 W/m² | - |
| 1777940729 | 31.67° C | 59% | 1010 hPa | - | - | 0 W/m² | - |
| 1777940649 | 31.11° C | 60% | 1010 hPa | - | - | 0 W/m² | - |
| 1777940525 | 31.11° C | 60% | 1010 hPa | - | - | 0 W/m² | - |
| 1777940452 | 30.56° C | 61% | 1010 hPa | - | - | 0 W/m² | - |
| 1777940339 | 30.56° C | 61% | 1010 hPa | - | - | 0 W/m² | - |
| 1777940263 | 30.56° C | 61% | 1010 hPa | - | - | 0 W/m² | - |
| 1777940185 | 30.56° C | 61% | 1010 hPa | - | - | 0 W/m² | - |
| 1777940083 | 30° C | 63% | 1010 hPa | - | - | 0 W/m² | - |
| 1777939566 | 28.89° C | 66% | 1010 hPa | - | - | 0 W/m² | - |
* Rain since midnight (hover to see other rain measurements)
** Current wind speed in m/s (hover to see current wind gust speed)